sensor_id;sensor_type;location;lat;lon;timestamp;temperature;humidity
31783;DHT22;18351;47.560;9.708;2023-04-16T00:01:20;7.10;99.90
31783;DHT22;18351;47.560;9.708;2023-04-16T00:03:45;7.20;99.90
31783;DHT22;18351;47.560;9.708;2023-04-16T00:06:11;7.20;99.90
31783;DHT22;18351;47.560;9.708;2023-04-16T00:08:37;7.30;99.90
31783;DHT22;18351;47.560;9.708;2023-04-16T00:11:02;7.30;99.90
31783;DHT22;18351;47.560;9.708;2023-04-16T00:13:28;7.30;99.90
31783;DHT22;18351;47.560;9.708;2023-04-16T00:15:53;7.30;99.90
31783;DHT22;18351;47.560;9.708;2023-04-16T00:18:19;7.30;99.90
31783;DHT22;18351;47.560;9.708;2023-04-16T00:20:47;7.30;99.90
31783;DHT22;18351;47.560;9.708;2023-04-16T00:23:12;7.30;99.90
31783;DHT22;18351;47.560;9.708;2023-04-16T00:25:38;7.30;99.90
31783;DHT22;18351;47.560;9.708;2023-04-16T00:28:04;7.40;99.90
31783;DHT22;18351;47.560;9.708;2023-04-16T00:30:29;7.30;99.90
31783;DHT22;18351;47.560;9.708;2023-04-16T00:32:55;7.40;99.90
31783;DHT22;18351;47.560;9.708;2023-04-16T00:35:20;7.30;99.90
31783;DHT22;18351;47.560;9.708;2023-04-16T00:37:46;7.40;99.90
31783;DHT22;18351;47.560;9.708;2023-04-16T00:40:12;7.40;99.90
31783;DHT22;18351;47.560;9.708;2023-04-16T00:42:37;7.40;99.90
31783;DHT22;18351;47.560;9.708;2023-04-16T00:45:04;7.40;99.90
31783;DHT22;18351;47.560;9.708;2023-04-16T00:47:30;7.40;99.90
31783;DHT22;18351;47.560;9.708;2023-04-16T00:49:56;7.40;99.90
31783;DHT22;18351;47.560;9.708;2023-04-16T00:52:21;7.50;99.90
31783;DHT22;18351;47.560;9.708;2023-04-16T00:54:47;7.50;99.90
31783;DHT22;18351;47.560;9.708;2023-04-16T00:57:13;7.40;99.90
31783;DHT22;18351;47.560;9.708;2023-04-16T00:59:40;7.40;99.90
31783;DHT22;18351;47.560;9.708;2023-04-16T01:02:06;7.40;99.90
31783;DHT22;18351;47.560;9.708;2023-04-16T01:04:31;7.40;99.90
31783;DHT22;18351;47.560;9.708;2023-04-16T01:06:58;7.40;99.90
31783;DHT22;18351;47.560;9.708;2023-04-16T01:09:24;7.40;99.90
31783;DHT22;18351;47.560;9.708;2023-04-16T01:11:49;7.40;99.90
31783;DHT22;18351;47.560;9.708;2023-04-16T01:14:15;7.40;99.90
31783;DHT22;18351;47.560;9.708;2023-04-16T01:16:40;7.40;99.90
31783;DHT22;18351;47.560;9.708;2023-04-16T01:19:06;7.40;99.90
31783;DHT22;18351;47.560;9.708;2023-04-16T01:21:32;7.30;99.90
31783;DHT22;18351;47.560;9.708;2023-04-16T01:24:01;7.40;99.90
31783;DHT22;18351;47.560;9.708;2023-04-16T01:26:27;7.30;99.90
31783;DHT22;18351;47.560;9.708;2023-04-16T01:28:52;7.30;99.90
31783;DHT22;18351;47.560;9.708;2023-04-16T01:31:18;7.30;99.90
31783;DHT22;18351;47.560;9.708;2023-04-16T01:33:43;7.20;99.90
31783;DHT22;18351;47.560;9.708;2023-04-16T01:36:09;7.20;99.90
31783;DHT22;18351;47.560;9.708;2023-04-16T01:38:35;7.20;99.90
31783;DHT22;18351;47.560;9.708;2023-04-16T01:41:00;7.20;99.90
31783;DHT22;18351;47.560;9.708;2023-04-16T01:43:26;7.20;99.90
31783;DHT22;18351;47.560;9.708;2023-04-16T01:46:10;7.10;99.90
31783;DHT22;18351;47.560;9.708;2023-04-16T01:48:36;7.10;99.90
31783;DHT22;18351;47.560;9.708;2023-04-16T01:51:01;7.10;99.90
31783;DHT22;18351;47.560;9.708;2023-04-16T01:53:29;7.10;99.90
31783;DHT22;18351;47.560;9.708;2023-04-16T01:55:54;7.10;99.90
31783;DHT22;18351;47.560;9.708;2023-04-16T01:58:20;7.10;99.90
31783;DHT22;18351;47.560;9.708;2023-04-16T02:00:45;7.10;99.90
31783;DHT22;18351;47.560;9.708;2023-04-16T02:03:11;7.00;99.90
31783;DHT22;18351;47.560;9.708;2023-04-16T02:05:36;7.00;99.90
31783;DHT22;18351;47.560;9.708;2023-04-16T02:08:02;7.00;99.90
31783;DHT22;18351;47.560;9.708;2023-04-16T02:10:27;7.00;99.90
31783;DHT22;18351;47.560;9.708;2023-04-16T02:12:53;6.90;99.90
31783;DHT22;18351;47.560;9.708;2023-04-16T02:15:18;6.90;99.90
31783;DHT22;18351;47.560;9.708;2023-04-16T02:17:44;6.90;99.90
31783;DHT22;18351;47.560;9.708;2023-04-16T02:20:10;6.80;99.90
31783;DHT22;18351;47.560;9.708;2023-04-16T02:22:36;6.80;99.90
31783;DHT22;18351;47.560;9.708;2023-04-16T02:25:02;6.80;99.90
31783;DHT22;18351;47.560;9.708;2023-04-16T02:27:27;6.80;99.90
31783;DHT22;18351;47.560;9.708;2023-04-16T02:29:53;6.80;99.90
31783;DHT22;18351;47.560;9.708;2023-04-16T02:32:18;6.70;99.90
31783;DHT22;18351;47.560;9.708;2023-04-16T02:34:44;6.60;99.90
31783;DHT22;18351;47.560;9.708;2023-04-16T02:37:09;6.70;99.90
31783;DHT22;18351;47.560;9.708;2023-04-16T02:39:35;6.60;99.90
31783;DHT22;18351;47.560;9.708;2023-04-16T02:42:01;6.50;99.90
31783;DHT22;18351;47.560;9.708;2023-04-16T02:44:27;6.40;99.90
31783;DHT22;18351;47.560;9.708;2023-04-16T02:46:52;6.40;99.90
31783;DHT22;18351;47.560;9.708;2023-04-16T02:49:18;6.30;99.90
31783;DHT22;18351;47.560;9.708;2023-04-16T02:51:43;6.20;99.90
31783;DHT22;18351;47.560;9.708;2023-04-16T02:54:09;6.30;99.90
31783;DHT22;18351;47.560;9.708;2023-04-16T02:56:34;6.30;99.90
31783;DHT22;18351;47.560;9.708;2023-04-16T02:59:00;6.30;99.90
31783;DHT22;18351;47.560;9.708;2023-04-16T03:01:25;6.30;99.90
31783;DHT22;18351;47.560;9.708;2023-04-16T03:03:52;6.30;99.90
31783;DHT22;18351;47.560;9.708;2023-04-16T03:06:18;6.30;99.90
31783;DHT22;18351;47.560;9.708;2023-04-16T03:08:43;6.30;99.90
31783;DHT22;18351;47.560;9.708;2023-04-16T03:11:09;6.20;99.90
31783;DHT22;18351;47.560;9.708;2023-04-16T03:13:34;6.20;99.90
31783;DHT22;18351;47.560;9.708;2023-04-16T03:16:00;6.20;99.90
31783;DHT22;18351;47.560;9.708;2023-04-16T03:18:26;6.30;99.90
31783;DHT22;18351;47.560;9.708;2023-04-16T03:20:52;6.20;99.90
31783;DHT22;18351;47.560;9.708;2023-04-16T03:23:18;6.20;99.90
31783;DHT22;18351;47.560;9.708;2023-04-16T03:25:44;6.30;99.90
31783;DHT22;18351;47.560;9.708;2023-04-16T03:28:11;6.30;99.90
31783;DHT22;18351;47.560;9.708;2023-04-16T03:30:36;6.30;99.90
31783;DHT22;18351;47.560;9.708;2023-04-16T03:33:02;6.40;99.90
31783;DHT22;18351;47.560;9.708;2023-04-16T03:35:28;6.30;99.90
31783;DHT22;18351;47.560;9.708;2023-04-16T03:37:53;6.40;99.90
31783;DHT22;18351;47.560;9.708;2023-04-16T03:40:19;6.40;99.90
31783;DHT22;18351;47.560;9.708;2023-04-16T03:42:44;6.30;99.90
31783;DHT22;18351;47.560;9.708;2023-04-16T03:45:10;6.30;99.90
31783;DHT22;18351;47.560;9.708;2023-04-16T03:47:36;6.40;99.90
31783;DHT22;18351;47.560;9.708;2023-04-16T03:50:01;6.40;99.90
31783;DHT22;18351;47.560;9.708;2023-04-16T03:52:27;6.40;99.90
31783;DHT22;18351;47.560;9.708;2023-04-16T03:54:52;6.40;99.90
31783;DHT22;18351;47.560;9.708;2023-04-16T03:57:18;6.40;99.90
31783;DHT22;18351;47.560;9.708;2023-04-16T03:59:43;6.30;99.90
31783;DHT22;18351;47.560;9.708;2023-04-16T04:02:09;6.30;99.90
31783;DHT22;18351;47.560;9.708;2023-04-16T04:04:34;6.20;99.90
31783;DHT22;18351;47.560;9.708;2023-04-16T04:07:00;6.20;99.90
31783;DHT22;18351;47.560;9.708;2023-04-16T04:09:25;6.30;99.90
31783;DHT22;18351;47.560;9.708;2023-04-16T04:11:51;6.30;99.90
31783;DHT22;18351;47.560;9.708;2023-04-16T04:14:16;6.30;99.90
31783;DHT22;18351;47.560;9.708;2023-04-16T04:16:42;6.30;99.90
31783;DHT22;18351;47.560;9.708;2023-04-16T04:19:07;6.30;99.90
31783;DHT22;18351;47.560;9.708;2023-04-16T04:21:33;6.20;99.90
31783;DHT22;18351;47.560;9.708;2023-04-16T04:23:58;6.20;99.90
31783;DHT22;18351;47.560;9.708;2023-04-16T04:26:24;6.20;99.90
31783;DHT22;18351;47.560;9.708;2023-04-16T04:28:50;6.20;99.90
31783;DHT22;18351;47.560;9.708;2023-04-16T04:31:15;6.10;99.90
31783;DHT22;18351;47.560;9.708;2023-04-16T04:33:41;6.10;99.90
31783;DHT22;18351;47.560;9.708;2023-04-16T04:36:06;6.10;99.90
31783;DHT22;18351;47.560;9.708;2023-04-16T04:38:32;6.10;99.90
31783;DHT22;18351;47.560;9.708;2023-04-16T04:40:58;6.10;99.90
31783;DHT22;18351;47.560;9.708;2023-04-16T04:43:23;6.20;99.90
31783;DHT22;18351;47.560;9.708;2023-04-16T04:45:49;6.20;99.90
31783;DHT22;18351;47.560;9.708;2023-04-16T04:48:15;6.20;99.90
31783;DHT22;18351;47.560;9.708;2023-04-16T04:50:44;6.20;99.90
31783;DHT22;18351;47.560;9.708;2023-04-16T04:53:10;6.10;99.90
31783;DHT22;18351;47.560;9.708;2023-04-16T04:55:36;6.10;99.90
31783;DHT22;18351;47.560;9.708;2023-04-16T04:58:04;6.00;99.90
31783;DHT22;18351;47.560;9.708;2023-04-16T05:00:31;6.00;99.90
31783;DHT22;18351;47.560;9.708;2023-04-16T05:02:57;5.90;99.90
31783;DHT22;18351;47.560;9.708;2023-04-16T05:05:22;5.90;99.90
31783;DHT22;18351;47.560;9.708;2023-04-16T05:07:48;5.90;99.90
31783;DHT22;18351;47.560;9.708;2023-04-16T05:10:13;5.90;99.90
31783;DHT22;18351;47.560;9.708;2023-04-16T05:12:39;5.90;99.90
31783;DHT22;18351;47.560;9.708;2023-04-16T05:15:05;6.00;99.90
31783;DHT22;18351;47.560;9.708;2023-04-16T05:17:30;6.10;99.90
31783;DHT22;18351;47.560;9.708;2023-04-16T05:19:56;6.10;99.90
31783;DHT22;18351;47.560;9.708;2023-04-16T05:22:21;6.10;99.90
31783;DHT22;18351;47.560;9.708;2023-04-16T05:24:47;6.20;99.90
31783;DHT22;18351;47.560;9.708;2023-04-16T05:27:12;6.20;99.90
31783;DHT22;18351;47.560;9.708;2023-04-16T05:29:38;6.20;99.90
31783;DHT22;18351;47.560;9.708;2023-04-16T05:32:03;6.20;99.90
31783;DHT22;18351;47.560;9.708;2023-04-16T05:34:29;6.10;99.90
31783;DHT22;18351;47.560;9.708;2023-04-16T05:36:55;6.10;99.90
31783;DHT22;18351;47.560;9.708;2023-04-16T05:39:20;6.20;99.90
31783;DHT22;18351;47.560;9.708;2023-04-16T05:41:46;6.10;99.90
31783;DHT22;18351;47.560;9.708;2023-04-16T05:44:11;6.10;99.90
31783;DHT22;18351;47.560;9.708;2023-04-16T05:46:37;6.00;99.90
31783;DHT22;18351;47.560;9.708;2023-04-16T05:49:02;6.00;99.90
31783;DHT22;18351;47.560;9.708;2023-04-16T05:51:28;6.10;99.90
31783;DHT22;18351;47.560;9.708;2023-04-16T05:53:53;6.10;99.90
31783;DHT22;18351;47.560;9.708;2023-04-16T05:56:19;6.10;99.90
31783;DHT22;18351;47.560;9.708;2023-04-16T05:58:46;6.10;99.90
31783;DHT22;18351;47.560;9.708;2023-04-16T06:01:11;6.20;99.90
31783;DHT22;18351;47.560;9.708;2023-04-16T06:03:37;6.30;99.90
31783;DHT22;18351;47.560;9.708;2023-04-16T06:06:02;6.30;99.90
31783;DHT22;18351;47.560;9.708;2023-04-16T06:08:28;6.30;99.90
31783;DHT22;18351;47.560;9.708;2023-04-16T06:10:53;6.40;99.90
31783;DHT22;18351;47.560;9.708;2023-04-16T06:13:19;6.40;99.90
31783;DHT22;18351;47.560;9.708;2023-04-16T06:15:44;6.40;99.90
31783;DHT22;18351;47.560;9.708;2023-04-16T06:18:11;6.40;99.90
31783;DHT22;18351;47.560;9.708;2023-04-16T06:20:36;6.40;99.90
31783;DHT22;18351;47.560;9.708;2023-04-16T06:23:02;6.40;99.90
31783;DHT22;18351;47.560;9.708;2023-04-16T06:25:27;6.50;99.90
31783;DHT22;18351;47.560;9.708;2023-04-16T06:27:53;6.50;99.90
31783;DHT22;18351;47.560;9.708;2023-04-16T06:30:18;6.40;99.90
31783;DHT22;18351;47.560;9.708;2023-04-16T06:32:44;6.40;99.90
31783;DHT22;18351;47.560;9.708;2023-04-16T06:35:11;6.40;99.90
31783;DHT22;18351;47.560;9.708;2023-04-16T06:37:36;6.50;99.90
31783;DHT22;18351;47.560;9.708;2023-04-16T06:40:02;6.50;99.90
31783;DHT22;18351;47.560;9.708;2023-04-16T06:42:27;6.60;99.90
31783;DHT22;18351;47.560;9.708;2023-04-16T06:44:53;6.70;99.90
31783;DHT22;18351;47.560;9.708;2023-04-16T06:47:18;6.60;99.90
31783;DHT22;18351;47.560;9.708;2023-04-16T06:49:44;6.60;99.90
31783;DHT22;18351;47.560;9.708;2023-04-16T06:52:10;6.70;99.90
31783;DHT22;18351;47.560;9.708;2023-04-16T06:54:36;6.60;99.90
31783;DHT22;18351;47.560;9.708;2023-04-16T06:57:02;6.70;99.90
31783;DHT22;18351;47.560;9.708;2023-04-16T06:59:27;6.70;99.90
31783;DHT22;18351;47.560;9.708;2023-04-16T07:01:53;6.70;99.90
31783;DHT22;18351;47.560;9.708;2023-04-16T07:04:18;6.80;99.90
31783;DHT22;18351;47.560;9.708;2023-04-16T07:06:44;6.80;99.90
31783;DHT22;18351;47.560;9.708;2023-04-16T07:09:10;6.90;99.90
31783;DHT22;18351;47.560;9.708;2023-04-16T07:11:35;6.90;99.90
31783;DHT22;18351;47.560;9.708;2023-04-16T07:14:01;7.00;99.90
31783;DHT22;18351;47.560;9.708;2023-04-16T07:16:27;7.10;99.90
31783;DHT22;18351;47.560;9.708;2023-04-16T07:18:52;7.10;99.90
31783;DHT22;18351;47.560;9.708;2023-04-16T07:21:18;7.20;99.90
31783;DHT22;18351;47.560;9.708;2023-04-16T07:23:44;7.20;99.90
31783;DHT22;18351;47.560;9.708;2023-04-16T07:26:09;7.20;99.90
31783;DHT22;18351;47.560;9.708;2023-04-16T07:28:36;7.30;99.90
31783;DHT22;18351;47.560;9.708;2023-04-16T07:31:01;7.30;99.90
31783;DHT22;18351;47.560;9.708;2023-04-16T07:33:27;7.40;99.90
31783;DHT22;18351;47.560;9.708;2023-04-16T07:35:53;7.40;99.90
31783;DHT22;18351;47.560;9.708;2023-04-16T07:38:18;7.50;99.90
31783;DHT22;18351;47.560;9.708;2023-04-16T07:40:44;7.60;99.90
31783;DHT22;18351;47.560;9.708;2023-04-16T07:43:09;7.60;99.90
31783;DHT22;18351;47.560;9.708;2023-04-16T07:45:35;7.70;99.90
31783;DHT22;18351;47.560;9.708;2023-04-16T07:48:00;7.70;99.90
31783;DHT22;18351;47.560;9.708;2023-04-16T07:50:26;7.60;99.90
31783;DHT22;18351;47.560;9.708;2023-04-16T07:52:52;7.60;99.90
31783;DHT22;18351;47.560;9.708;2023-04-16T07:55:18;7.60;99.90
31783;DHT22;18351;47.560;9.708;2023-04-16T07:57:44;7.70;99.90
31783;DHT22;18351;47.560;9.708;2023-04-16T08:00:09;7.70;99.90
31783;DHT22;18351;47.560;9.708;2023-04-16T08:02:35;7.70;99.90
31783;DHT22;18351;47.560;9.708;2023-04-16T08:05:01;7.70;99.90
31783;DHT22;18351;47.560;9.708;2023-04-16T08:07:27;7.80;99.90
31783;DHT22;18351;47.560;9.708;2023-04-16T08:09:52;7.80;99.90
31783;DHT22;18351;47.560;9.708;2023-04-16T08:12:19;7.80;99.90
31783;DHT22;18351;47.560;9.708;2023-04-16T08:14:45;7.80;99.90
31783;DHT22;18351;47.560;9.708;2023-04-16T08:17:12;7.90;99.90
31783;DHT22;18351;47.560;9.708;2023-04-16T08:19:38;7.80;99.90
31783;DHT22;18351;47.560;9.708;2023-04-16T08:22:03;7.90;99.90
31783;DHT22;18351;47.560;9.708;2023-04-16T08:24:29;7.90;99.90
31783;DHT22;18351;47.560;9.708;2023-04-16T08:26:54;7.90;99.90
31783;DHT22;18351;47.560;9.708;2023-04-16T08:29:20;7.90;99.90
31783;DHT22;18351;47.560;9.708;2023-04-16T08:31:46;7.90;99.90
31783;DHT22;18351;47.560;9.708;2023-04-16T08:34:12;7.90;99.90
31783;DHT22;18351;47.560;9.708;2023-04-16T08:36:39;8.00;99.90
31783;DHT22;18351;47.560;9.708;2023-04-16T08:39:05;7.90;99.90
31783;DHT22;18351;47.560;9.708;2023-04-16T08:41:32;8.00;99.90
31783;DHT22;18351;47.560;9.708;2023-04-16T08:43:59;8.00;99.90
31783;DHT22;18351;47.560;9.708;2023-04-16T08:46:28;8.00;99.90
31783;DHT22;18351;47.560;9.708;2023-04-16T08:48:58;8.00;99.90
31783;DHT22;18351;47.560;9.708;2023-04-16T08:51:24;8.00;99.90
31783;DHT22;18351;47.560;9.708;2023-04-16T08:54:02;8.00;99.90
31783;DHT22;18351;47.560;9.708;2023-04-16T08:56:30;8.00;99.90
31783;DHT22;18351;47.560;9.708;2023-04-16T08:58:56;8.10;99.90
31783;DHT22;18351;47.560;9.708;2023-04-16T09:01:24;8.10;99.90
31783;DHT22;18351;47.560;9.708;2023-04-16T09:03:51;8.10;99.90
31783;DHT22;18351;47.560;9.708;2023-04-16T09:06:17;8.20;99.90
31783;DHT22;18351;47.560;9.708;2023-04-16T09:08:44;8.20;99.90
31783;DHT22;18351;47.560;9.708;2023-04-16T09:11:12;8.20;99.90
31783;DHT22;18351;47.560;9.708;2023-04-16T09:13:38;8.20;99.90
31783;DHT22;18351;47.560;9.708;2023-04-16T09:16:05;8.20;99.90
31783;DHT22;18351;47.560;9.708;2023-04-16T09:18:31;8.20;99.90
31783;DHT22;18351;47.560;9.708;2023-04-16T09:20:57;8.20;99.90
31783;DHT22;18351;47.560;9.708;2023-04-16T09:23:22;8.20;99.90
31783;DHT22;18351;47.560;9.708;2023-04-16T09:25:49;8.20;99.90
31783;DHT22;18351;47.560;9.708;2023-04-16T09:28:41;8.20;99.90
31783;DHT22;18351;47.560;9.708;2023-04-16T09:31:17;8.20;99.90
31783;DHT22;18351;47.560;9.708;2023-04-16T09:34:06;8.10;99.90
31783;DHT22;18351;47.560;9.708;2023-04-16T09:36:33;8.10;99.90
31783;DHT22;18351;47.560;9.708;2023-04-16T09:38:59;8.20;99.90
31783;DHT22;18351;47.560;9.708;2023-04-16T09:41:27;8.30;99.90
31783;DHT22;18351;47.560;9.708;2023-04-16T09:44:00;8.30;99.90
31783;DHT22;18351;47.560;9.708;2023-04-16T09:46:30;8.30;99.90
31783;DHT22;18351;47.560;9.708;2023-04-16T09:48:56;8.30;99.90
31783;DHT22;18351;47.560;9.708;2023-04-16T09:51:22;8.40;99.90
31783;DHT22;18351;47.560;9.708;2023-04-16T09:53:51;8.60;99.90
31783;DHT22;18351;47.560;9.708;2023-04-16T09:56:22;8.70;99.90
31783;DHT22;18351;47.560;9.708;2023-04-16T09:58:49;8.80;99.90
31783;DHT22;18351;47.560;9.708;2023-04-16T10:01:17;8.90;99.90
31783;DHT22;18351;47.560;9.708;2023-04-16T10:03:42;8.80;99.90
31783;DHT22;18351;47.560;9.708;2023-04-16T10:06:17;8.90;99.90
31783;DHT22;18351;47.560;9.708;2023-04-16T10:08:51;9.00;99.90
31783;DHT22;18351;47.560;9.708;2023-04-16T10:11:18;9.10;99.90
31783;DHT22;18351;47.560;9.708;2023-04-16T10:13:44;9.10;99.90
31783;DHT22;18351;47.560;9.708;2023-04-16T10:16:10;9.10;99.90
31783;DHT22;18351;47.560;9.708;2023-04-16T10:18:37;9.30;99.90
31783;DHT22;18351;47.560;9.708;2023-04-16T10:21:03;9.30;99.90
31783;DHT22;18351;47.560;9.708;2023-04-16T10:23:29;9.30;99.90
31783;DHT22;18351;47.560;9.708;2023-04-16T10:25:55;9.50;99.90
31783;DHT22;18351;47.560;9.708;2023-04-16T10:28:21;9.60;99.90
31783;DHT22;18351;47.560;9.708;2023-04-16T10:30:50;9.70;99.90
31783;DHT22;18351;47.560;9.708;2023-04-16T10:33:21;9.80;99.90
31783;DHT22;18351;47.560;9.708;2023-04-16T10:35:47;9.80;99.90
31783;DHT22;18351;47.560;9.708;2023-04-16T10:38:23;9.80;99.90
31783;DHT22;18351;47.560;9.708;2023-04-16T10:40:49;9.80;99.90
31783;DHT22;18351;47.560;9.708;2023-04-16T10:43:18;9.80;99.90
31783;DHT22;18351;47.560;9.708;2023-04-16T10:45:46;9.90;99.90
31783;DHT22;18351;47.560;9.708;2023-04-16T10:48:11;9.80;99.90
31783;DHT22;18351;47.560;9.708;2023-04-16T10:50:39;9.70;99.90
31783;DHT22;18351;47.560;9.708;2023-04-16T10:53:17;9.70;99.90
31783;DHT22;18351;47.560;9.708;2023-04-16T10:55:56;9.50;99.90
31783;DHT22;18351;47.560;9.708;2023-04-16T10:58:28;9.40;99.90
31783;DHT22;18351;47.560;9.708;2023-04-16T11:00:54;9.30;99.90
31783;DHT22;18351;47.560;9.708;2023-04-16T11:03:20;9.30;99.90
31783;DHT22;18351;47.560;9.708;2023-04-16T11:05:46;9.20;99.90
31783;DHT22;18351;47.560;9.708;2023-04-16T11:08:14;9.30;99.90
31783;DHT22;18351;47.560;9.708;2023-04-16T11:10:40;9.30;99.90
31783;DHT22;18351;47.560;9.708;2023-04-16T11:13:06;9.20;99.90
31783;DHT22;18351;47.560;9.708;2023-04-16T11:15:33;9.20;99.90
31783;DHT22;18351;47.560;9.708;2023-04-16T11:17:59;9.30;99.90
31783;DHT22;18351;47.560;9.708;2023-04-16T11:20:26;9.30;99.90
31783;DHT22;18351;47.560;9.708;2023-04-16T11:22:53;9.20;99.90
31783;DHT22;18351;47.560;9.708;2023-04-16T11:25:27;9.20;99.90
31783;DHT22;18351;47.560;9.708;2023-04-16T11:27:58;9.10;99.90
31783;DHT22;18351;47.560;9.708;2023-04-16T11:30:34;9.20;99.90
31783;DHT22;18351;47.560;9.708;2023-04-16T11:33:10;9.20;99.90
31783;DHT22;18351;47.560;9.708;2023-04-16T11:35:36;9.20;99.90
31783;DHT22;18351;47.560;9.708;2023-04-16T11:38:04;9.20;99.90
31783;DHT22;18351;47.560;9.708;2023-04-16T11:40:31;9.20;99.90
31783;DHT22;18351;47.560;9.708;2023-04-16T11:43:24;9.20;99.90
31783;DHT22;18351;47.560;9.708;2023-04-16T11:46:04;9.10;99.90
31783;DHT22;18351;47.560;9.708;2023-04-16T11:48:50;9.20;99.90
31783;DHT22;18351;47.560;9.708;2023-04-16T11:51:16;9.20;99.90
31783;DHT22;18351;47.560;9.708;2023-04-16T11:53:52;9.10;99.90
31783;DHT22;18351;47.560;9.708;2023-04-16T11:56:28;9.20;99.90
31783;DHT22;18351;47.560;9.708;2023-04-16T11:59:14;9.10;99.90
31783;DHT22;18351;47.560;9.708;2023-04-16T12:01:41;9.10;99.90
31783;DHT22;18351;47.560;9.708;2023-04-16T12:04:10;9.10;99.90
31783;DHT22;18351;47.560;9.708;2023-04-16T12:06:36;9.20;99.90
31783;DHT22;18351;47.560;9.708;2023-04-16T12:09:24;9.30;99.90
31783;DHT22;18351;47.560;9.708;2023-04-16T12:11:50;9.40;99.90
31783;DHT22;18351;47.560;9.708;2023-04-16T12:14:16;9.40;99.90
31783;DHT22;18351;47.560;9.708;2023-04-16T12:16:41;9.40;99.90
31783;DHT22;18351;47.560;9.708;2023-04-16T12:19:10;9.50;99.90
31783;DHT22;18351;47.560;9.708;2023-04-16T12:21:47;9.60;99.90
31783;DHT22;18351;47.560;9.708;2023-04-16T12:24:17;9.60;99.90
31783;DHT22;18351;47.560;9.708;2023-04-16T12:26:52;9.70;99.90
31783;DHT22;18351;47.560;9.708;2023-04-16T12:29:25;9.70;99.90
31783;DHT22;18351;47.560;9.708;2023-04-16T12:31:52;9.70;99.90
31783;DHT22;18351;47.560;9.708;2023-04-16T12:34:19;9.80;99.90
31783;DHT22;18351;47.560;9.708;2023-04-16T12:36:46;9.90;99.90
31783;DHT22;18351;47.560;9.708;2023-04-16T12:39:13;10.10;99.90
31783;DHT22;18351;47.560;9.708;2023-04-16T12:41:41;10.30;99.90
31783;DHT22;18351;47.560;9.708;2023-04-16T12:44:09;10.40;99.90
31783;DHT22;18351;47.560;9.708;2023-04-16T12:46:40;10.50;99.90
31783;DHT22;18351;47.560;9.708;2023-04-16T12:49:07;10.50;99.90
31783;DHT22;18351;47.560;9.708;2023-04-16T12:51:33;10.60;99.90
31783;DHT22;18351;47.560;9.708;2023-04-16T12:54:01;10.60;99.90
31783;DHT22;18351;47.560;9.708;2023-04-16T12:56:27;10.40;99.90
31783;DHT22;18351;47.560;9.708;2023-04-16T12:58:53;10.20;99.90
31783;DHT22;18351;47.560;9.708;2023-04-16T13:01:19;10.10;99.90
31783;DHT22;18351;47.560;9.708;2023-04-16T13:03:45;10.00;99.90
31783;DHT22;18351;47.560;9.708;2023-04-16T13:06:13;9.90;99.90
31783;DHT22;18351;47.560;9.708;2023-04-16T13:08:39;9.90;99.90
31783;DHT22;18351;47.560;9.708;2023-04-16T13:11:05;9.80;99.90
31783;DHT22;18351;47.560;9.708;2023-04-16T13:13:31;9.90;99.90
31783;DHT22;18351;47.560;9.708;2023-04-16T13:15:56;10.00;99.90
31783;DHT22;18351;47.560;9.708;2023-04-16T13:18:22;9.90;99.90
31783;DHT22;18351;47.560;9.708;2023-04-16T13:20:47;10.00;99.90
31783;DHT22;18351;47.560;9.708;2023-04-16T13:23:13;10.00;99.90
31783;DHT22;18351;47.560;9.708;2023-04-16T13:25:39;10.00;99.90
31783;DHT22;18351;47.560;9.708;2023-04-16T13:28:05;9.90;99.90
31783;DHT22;18351;47.560;9.708;2023-04-16T13:30:30;9.90;99.90
31783;DHT22;18351;47.560;9.708;2023-04-16T13:32:58;9.80;99.90
31783;DHT22;18351;47.560;9.708;2023-04-16T13:35:23;9.80;99.90
31783;DHT22;18351;47.560;9.708;2023-04-16T13:37:49;9.80;99.90
31783;DHT22;18351;47.560;9.708;2023-04-16T13:40:14;9.80;99.90
31783;DHT22;18351;47.560;9.708;2023-04-16T13:42:40;9.60;99.90
31783;DHT22;18351;47.560;9.708;2023-04-16T13:45:06;9.70;99.90
31783;DHT22;18351;47.560;9.708;2023-04-16T13:47:34;9.60;99.90
31783;DHT22;18351;47.560;9.708;2023-04-16T13:49:59;9.50;99.90
31783;DHT22;18351;47.560;9.708;2023-04-16T13:52:25;9.40;99.90
31783;DHT22;18351;47.560;9.708;2023-04-16T13:54:50;9.40;99.90
31783;DHT22;18351;47.560;9.708;2023-04-16T13:57:16;9.40;99.90
31783;DHT22;18351;47.560;9.708;2023-04-16T13:59:42;9.40;99.90
31783;DHT22;18351;47.560;9.708;2023-04-16T14:02:09;9.60;99.90
31783;DHT22;18351;47.560;9.708;2023-04-16T14:04:35;9.60;99.90
31783;DHT22;18351;47.560;9.708;2023-04-16T14:07:01;9.60;99.90
31783;DHT22;18351;47.560;9.708;2023-04-16T14:09:26;9.70;99.90
31783;DHT22;18351;47.560;9.708;2023-04-16T14:11:52;9.70;99.90
31783;DHT22;18351;47.560;9.708;2023-04-16T14:14:18;9.70;99.90
31783;DHT22;18351;47.560;9.708;2023-04-16T14:16:43;9.70;99.90
31783;DHT22;18351;47.560;9.708;2023-04-16T14:19:09;9.80;99.90
31783;DHT22;18351;47.560;9.708;2023-04-16T14:21:35;9.80;99.90
31783;DHT22;18351;47.560;9.708;2023-04-16T14:24:01;9.90;99.90
31783;DHT22;18351;47.560;9.708;2023-04-16T14:26:27;10.00;99.90
31783;DHT22;18351;47.560;9.708;2023-04-16T14:28:52;10.10;99.90
31783;DHT22;18351;47.560;9.708;2023-04-16T14:31:18;10.20;99.90
31783;DHT22;18351;47.560;9.708;2023-04-16T14:33:44;10.20;99.90
31783;DHT22;18351;47.560;9.708;2023-04-16T14:36:11;10.20;99.90
31783;DHT22;18351;47.560;9.708;2023-04-16T14:38:36;10.10;99.90
31783;DHT22;18351;47.560;9.708;2023-04-16T14:41:02;10.10;99.90
31783;DHT22;18351;47.560;9.708;2023-04-16T14:43:28;10.00;99.90
31783;DHT22;18351;47.560;9.708;2023-04-16T14:45:53;10.00;99.90
31783;DHT22;18351;47.560;9.708;2023-04-16T14:48:19;10.00;99.90
31783;DHT22;18351;47.560;9.708;2023-04-16T14:50:45;9.80;99.90
31783;DHT22;18351;47.560;9.708;2023-04-16T14:53:11;9.80;99.90
31783;DHT22;18351;47.560;9.708;2023-04-16T14:55:36;9.70;99.90
31783;DHT22;18351;47.560;9.708;2023-04-16T14:58:02;9.60;99.90
31783;DHT22;18351;47.560;9.708;2023-04-16T15:00:28;9.50;99.90
31783;DHT22;18351;47.560;9.708;2023-04-16T15:02:54;9.50;99.90
31783;DHT22;18351;47.560;9.708;2023-04-16T15:05:20;9.60;99.90
31783;DHT22;18351;47.560;9.708;2023-04-16T15:07:45;9.50;99.90
31783;DHT22;18351;47.560;9.708;2023-04-16T15:10:12;9.50;99.90
31783;DHT22;18351;47.560;9.708;2023-04-16T15:12:38;9.40;99.90
31783;DHT22;18351;47.560;9.708;2023-04-16T15:15:07;9.40;99.90
31783;DHT22;18351;47.560;9.708;2023-04-16T15:17:33;9.30;99.90
31783;DHT22;18351;47.560;9.708;2023-04-16T15:19:58;9.30;99.90
31783;DHT22;18351;47.560;9.708;2023-04-16T15:22:24;9.30;99.90
31783;DHT22;18351;47.560;9.708;2023-04-16T15:24:50;9.30;99.90
31783;DHT22;18351;47.560;9.708;2023-04-16T15:27:16;9.30;99.90
31783;DHT22;18351;47.560;9.708;2023-04-16T15:29:42;9.30;99.90
31783;DHT22;18351;47.560;9.708;2023-04-16T15:32:11;9.40;99.90
31783;DHT22;18351;47.560;9.708;2023-04-16T15:34:36;9.30;99.90
31783;DHT22;18351;47.560;9.708;2023-04-16T15:37:02;9.30;99.90
31783;DHT22;18351;47.560;9.708;2023-04-16T15:39:27;9.30;99.90
31783;DHT22;18351;47.560;9.708;2023-04-16T15:41:53;9.30;99.90